createdAt,value
2016-06-14T00:00:01.756Z,49.65
2016-06-14T00:01:01.885Z,49.65
2016-06-14T00:02:01.857Z,49.65
2016-06-14T00:03:01.843Z,49.65
2016-06-14T00:04:01.816Z,49.55
2016-06-14T00:05:01.802Z,49.55
2016-06-14T00:06:01.884Z,49.55
2016-06-14T00:07:01.856Z,49.55
2016-06-14T00:08:01.750Z,49.65
2016-06-14T00:09:01.722Z,49.65
2016-06-14T00:10:01.709Z,49.55
2016-06-14T00:11:01.681Z,49.65
2016-06-14T00:12:01.669Z,49.27
2016-06-14T00:13:01.640Z,49.65
2016-06-14T00:14:02.627Z,49.65
2016-06-14T00:15:01.616Z,49.55
2016-06-14T00:16:01.586Z,49.46
2016-06-14T00:17:01.575Z,49.55
2016-06-14T00:18:01.546Z,49.65
2016-06-14T00:19:01.518Z,49.55
2016-06-14T00:20:01.506Z,49.55
2016-06-14T00:21:01.477Z,49.55
2016-06-14T00:22:01.480Z,49.46
2016-06-14T00:23:01.452Z,49.65
2016-06-14T00:24:01.424Z,49.46
2016-06-14T00:25:01.411Z,49.55
2016-06-14T00:26:01.399Z,49.55
2016-06-14T00:27:01.370Z,49.75
2016-06-14T00:28:01.358Z,49.55
2016-06-14T00:29:01.330Z,49.75
2016-06-14T00:30:01.301Z,49.65
2016-06-14T00:31:01.289Z,49.55
2016-06-14T00:32:01.277Z,49.65
2016-06-14T00:33:01.249Z,49.65
2016-06-14T00:34:01.219Z,49.55
2016-06-14T00:35:01.223Z,49.65
2016-06-14T00:36:01.195Z,49.55
2016-06-14T00:37:01.167Z,49.65
2016-06-14T00:38:01.154Z,49.55
2016-06-14T00:39:01.142Z,49.55
2016-06-14T00:40:01.114Z,49.85
2016-06-14T00:41:01.101Z,49.55
2016-06-14T00:42:01.073Z,49.75
2016-06-14T00:43:01.045Z,49.75
2016-06-14T00:44:01.033Z,49.75
2016-06-14T00:45:01.019Z,49.95
2016-06-14T00:46:00.992Z,49.75
2016-06-14T00:47:00.978Z,49.85
2016-06-14T00:48:00.951Z,49.65
2016-06-14T00:49:00.938Z,49.85
2016-06-14T00:50:00.910Z,49.95
2016-06-14T00:51:00.897Z,50.04
2016-06-14T00:52:00.869Z,50.13
2016-06-14T00:53:00.857Z,50.33
2016-06-14T00:54:00.829Z,50.33
2016-06-14T00:55:00.800Z,50.43
2016-06-14T00:56:00.804Z,50.23
2016-06-14T00:57:00.791Z,50.43
2016-06-14T00:58:00.762Z,50.33
2016-06-14T00:59:00.735Z,50.33
2016-06-14T01:00:00.769Z,50.23
2016-06-14T01:01:00.694Z,50.23
2016-06-14T01:02:00.681Z,50.13
2016-06-14T01:03:00.669Z,50.43
2016-06-14T01:04:00.641Z,50.13
2016-06-14T01:05:00.629Z,50.23
2016-06-14T01:06:00.600Z,50.13
2016-06-14T01:07:00.572Z,50.04
2016-06-14T01:08:00.559Z,50.04
2016-06-14T01:09:00.531Z,50.04
2016-06-14T01:10:00.519Z,49.95
2016-06-14T01:11:00.569Z,49.85
2016-06-14T01:12:00.477Z,49.85
2016-06-14T01:13:00.465Z,49.85
2016-06-14T01:14:00.281Z,50.13
2016-06-14T01:15:00.831Z,50.23
2016-06-14T01:16:00.395Z,50.04
2016-06-14T01:17:00.384Z,50.13
2016-06-14T01:18:00.356Z,50.04
2016-06-14T01:19:00.343Z,50.23
2016-06-14T01:20:00.330Z,50.13
2016-06-14T01:21:00.302Z,50.13
2016-06-14T01:22:00.275Z,50.43
2016-06-14T01:23:00.277Z,50.23
2016-06-14T01:24:00.248Z,49.85
2016-06-14T01:25:00.221Z,49.55
2016-06-14T01:26:00.209Z,49.55
2016-06-14T01:27:00.180Z,49.55
2016-06-14T01:28:00.168Z,49.46
2016-06-14T01:29:00.139Z,49.75
2016-06-14T01:30:00.127Z,49.75
2016-06-14T01:31:00.099Z,49.55
2016-06-14T01:32:00.086Z,49.65
2016-06-14T01:33:00.058Z,49.37
2016-06-14T01:34:00.045Z,49.75
2016-06-14T01:35:00.017Z,49.55
2016-06-14T01:36:00.005Z,49.75
2016-06-14T01:36:59.992Z,49.75
2016-06-14T01:37:59.963Z,49.65
2016-06-14T01:38:59.936Z,49.55
2016-06-14T01:39:59.923Z,49.55
2016-06-14T01:40:59.894Z,49.55
2016-06-14T01:41:59.883Z,49.65
2016-06-14T01:42:59.854Z,49.65
2016-06-14T01:43:59.842Z,49.55
2016-06-14T01:44:59.923Z,49.55
2016-06-14T01:45:59.816Z,49.65
2016-06-14T01:46:59.789Z,49.55
2016-06-14T01:47:59.604Z,49.55
2016-06-14T01:48:59.747Z,49.55
2016-06-14T01:49:59.735Z,49.46
2016-06-14T01:50:59.707Z,49.65
2016-06-14T01:51:59.678Z,49.55
2016-06-14T01:52:59.682Z,49.55
2016-06-14T01:53:59.653Z,49.55
2016-06-14T01:54:59.626Z,49.55
2016-06-14T01:55:59.613Z,49.55
2016-06-14T01:56:59.585Z,49.55
2016-06-14T01:57:59.588Z,49.55
2016-06-14T01:58:59.541Z,49.55
2016-06-14T01:59:59.544Z,49.55
2016-06-14T02:00:59.516Z,49.65
2016-06-14T02:01:59.503Z,49.55
2016-06-14T02:02:59.475Z,49.55
2016-06-14T02:03:59.462Z,49.55
2016-06-14T02:04:59.435Z,49.55
2016-06-14T02:05:59.406Z,49.55
2016-06-14T02:06:59.394Z,49.55
2016-06-14T02:07:59.381Z,49.46
2016-06-14T02:08:59.353Z,49.65
2016-06-14T02:09:59.341Z,49.55
2016-06-14T02:10:59.328Z,49.65
2016-06-14T02:11:59.300Z,49.55
2016-06-14T02:12:59.287Z,49.55
2016-06-14T02:13:59.259Z,49.55
2016-06-14T02:14:59.247Z,49.55
2016-06-14T02:15:59.218Z,49.55
2016-06-14T02:16:59.205Z,49.55
2016-06-14T02:17:59.177Z,49.55
2016-06-14T02:18:59.165Z,49.55
2016-06-14T02:19:59.152Z,49.55
2016-06-14T02:20:59.108Z,49.55
2016-06-14T02:21:59.112Z,49.65
2016-06-14T02:22:59.083Z,49.65
2016-06-14T02:23:59.055Z,49.55
2016-06-14T02:24:59.043Z,49.55
2016-06-14T02:25:59.030Z,49.55
2016-06-14T02:26:59.018Z,49.07
2016-06-14T02:27:58.989Z,49.37
2016-06-14T02:28:58.977Z,49.19
2016-06-14T02:29:59.636Z,48.71
2016-06-14T02:30:58.920Z,48.71
2016-06-14T02:31:58.908Z,48.42
2016-06-14T02:32:58.879Z,48.25
2016-06-14T02:33:58.867Z,48.06
2016-06-14T02:34:58.855Z,47.38
2016-06-14T02:35:58.827Z,47.28
2016-06-14T02:36:58.813Z,46.92
2016-06-14T02:37:58.802Z,46.63
2016-06-14T02:38:58.773Z,46.25
2016-06-14T02:39:58.745Z,46.25
2016-06-14T02:40:58.732Z,46.15
2016-06-14T02:41:58.704Z,46.05
2016-06-14T02:42:58.693Z,46.15
2016-06-14T02:43:58.679Z,45.95
2016-06-14T02:44:58.667Z,46.15
2016-06-14T02:45:58.639Z,46.25
2016-06-14T02:46:58.610Z,46.34
2016-06-14T02:47:58.598Z,46.25
2016-06-14T02:48:58.570Z,46.25
2016-06-14T02:49:58.573Z,46.51
2016-06-14T02:50:58.560Z,46.61
2016-06-14T02:51:58.532Z,46.8
2016-06-14T02:52:58.504Z,47.38
2016-06-14T02:53:58.491Z,47.28
2016-06-14T02:54:58.604Z,47.28
2016-06-14T02:55:58.450Z,47.58
2016-06-14T02:56:58.329Z,47.58
2016-06-14T02:57:58.253Z,47.94
2016-06-14T02:58:58.459Z,47.94
2016-06-14T02:59:58.385Z,47.94
2016-06-14T03:00:58.372Z,47.94
2016-06-14T03:01:58.407Z,48.13
2016-06-14T03:02:58.332Z,48.23
2016-06-14T03:03:58.366Z,48.42
2016-06-14T03:04:58.291Z,48.42
2016-06-14T03:05:58.263Z,48.32
2016-06-14T03:06:58.234Z,48.71
2016-06-14T03:07:58.223Z,48.61
2016-06-14T03:08:58.209Z,48.71
2016-06-14T03:09:58.196Z,48.61
2016-06-14T03:10:58.168Z,48.61
2016-06-14T03:11:58.156Z,48.71
2016-06-14T03:12:58.128Z,48.61
2016-06-14T03:13:58.116Z,48.81
2016-06-14T03:14:58.258Z,48.9
2016-06-14T03:15:58.074Z,48.81
2016-06-14T03:16:58.078Z,48.79
2016-06-14T03:17:58.050Z,48.71
2016-06-14T03:18:58.021Z,48.81
2016-06-14T03:19:58.009Z,48.9
2016-06-14T03:20:57.980Z,48.88
2016-06-14T03:21:57.968Z,49.07
2016-06-14T03:22:57.924Z,49.07
2016-06-14T03:23:57.911Z,49.17
2016-06-14T03:24:57.900Z,49.07
2016-06-14T03:25:57.870Z,49.17
2016-06-14T03:26:57.842Z,49.27
2016-06-14T03:27:57.831Z,49.07
2016-06-14T03:28:57.818Z,49.27
2016-06-14T03:29:57.804Z,49.17
2016-06-14T03:30:57.777Z,49.37
2016-06-14T03:31:57.763Z,49.27
2016-06-14T03:32:57.752Z,49.17
2016-06-14T03:33:57.724Z,49.17
2016-06-14T03:34:57.711Z,49.17
2016-06-14T03:35:57.698Z,49.07
2016-06-14T03:36:57.670Z,49.07
2016-06-14T03:37:57.657Z,49.17
2016-06-14T03:38:57.630Z,49.17
2016-06-14T03:39:57.618Z,49.07
2016-06-14T03:40:57.574Z,49.17
2016-06-14T03:41:57.607Z,49.07
2016-06-14T03:42:57.547Z,49.07
2016-06-14T03:43:57.520Z,49.27
2016-06-14T03:44:58.633Z,49.07
2016-06-14T03:45:57.495Z,49.17
2016-06-14T03:46:57.467Z,49.17
2016-06-14T03:47:57.438Z,49.27
2016-06-14T03:48:57.254Z,49.17
2016-06-14T03:49:57.491Z,49.17
2016-06-14T03:50:57.369Z,49.27
2016-06-14T03:51:57.357Z,49.17
2016-06-14T03:52:57.328Z,49.17
2016-06-14T03:53:57.331Z,49.07
2016-06-14T03:54:57.304Z,49.07
2016-06-14T03:55:57.292Z,49.27
2016-06-14T03:56:57.262Z,49.17
2016-06-14T03:57:57.251Z,49.17
2016-06-14T03:58:57.238Z,49.17
2016-06-14T03:59:57.054Z,49.17
2016-06-14T04:00:57.197Z,49.17
2016-06-14T04:01:57.169Z,48.97
2016-06-14T04:02:57.141Z,49.07
2016-06-14T04:03:57.128Z,49.17
2016-06-14T04:04:57.101Z,48.88
2016-06-14T04:05:57.087Z,48.69
2016-06-14T04:06:57.059Z,48.79
2016-06-14T04:07:57.062Z,48.79
2016-06-14T04:08:56.878Z,48.59
2016-06-14T04:09:57.006Z,48.59
2016-06-14T04:10:56.993Z,48.59
2016-06-14T04:11:56.966Z,48.3
2016-06-14T04:12:56.937Z,48.39
2016-06-14T04:13:56.956Z,48.23
2016-06-14T04:14:56.912Z,48.03
2016-06-14T04:15:56.728Z,47.84
2016-06-14T04:16:56.715Z,47.94
2016-06-14T04:17:56.843Z,47.94
2016-06-14T04:18:56.830Z,47.55
2016-06-14T04:19:56.834Z,47.55
2016-06-14T04:20:56.790Z,47.26
2016-06-14T04:21:56.777Z,47.16
2016-06-14T04:22:56.765Z,47.26
2016-06-14T04:23:56.736Z,47.26
2016-06-14T04:24:56.724Z,46.78
2016-06-14T04:25:56.696Z,46.61
2016-06-14T04:26:56.683Z,46.61
2016-06-14T04:27:56.655Z,46.7
2016-06-14T04:28:56.628Z,46.42
2016-06-14T04:29:56.802Z,46.32
2016-06-14T04:30:57.180Z,46.03
2016-06-14T04:31:56.684Z,46.51
2016-06-14T04:32:56.546Z,46.32
2016-06-14T04:33:56.579Z,46.22
2016-06-14T04:34:56.537Z,46.32
2016-06-14T04:35:56.493Z,46.32
2016-06-14T04:36:56.479Z,46.22
2016-06-14T04:37:56.466Z,46.12
2016-06-14T04:38:56.439Z,46.22
2016-06-14T04:39:56.427Z,46.32
2016-06-14T04:40:56.398Z,46.1
2016-06-14T04:41:56.401Z,46.51
2016-06-14T04:42:56.357Z,46.58
2016-06-14T04:43:56.345Z,46.49
2016-06-14T04:44:56.332Z,46.58
2016-06-14T04:45:56.366Z,46.58
2016-06-14T04:46:56.291Z,46.97
2016-06-14T04:47:56.405Z,46.88
2016-06-14T04:48:56.267Z,46.78
2016-06-14T04:49:56.222Z,46.97
2016-06-14T04:50:56.226Z,47.36
2016-06-14T04:51:56.229Z,47.36
2016-06-14T04:52:56.170Z,47.36
2016-06-14T04:53:56.141Z,47.05
2016-06-14T04:54:56.144Z,47.36
2016-06-14T04:55:56.116Z,47.55
2016-06-14T04:56:56.104Z,47.26
2016-06-14T04:57:56.092Z,47.36
2016-06-14T04:58:56.063Z,47.43
2016-06-14T04:59:56.034Z,47.65
2016-06-14T05:00:56.022Z,47.53
2016-06-14T05:01:56.010Z,47.55
2016-06-14T05:02:56.013Z,47.53
2016-06-14T05:03:55.969Z,47.33
2016-06-14T05:04:55.925Z,47.33
2016-06-14T05:05:55.913Z,47.43
2016-06-14T05:06:55.916Z,47.53
2016-06-14T05:07:55.888Z,47.33
2016-06-14T05:08:55.859Z,47.33
2016-06-14T05:09:55.831Z,47.33
2016-06-14T05:10:55.818Z,47.43
2016-06-14T05:11:55.869Z,47.43
2016-06-14T05:12:55.810Z,47.53
2016-06-14T05:13:55.750Z,47.43
2016-06-14T05:14:55.722Z,47.33
2016-06-14T05:15:55.709Z,47.63
2016-06-14T05:16:55.884Z,47.43
2016-06-14T05:17:55.715Z,47.63
2016-06-14T05:18:55.656Z,47.43
2016-06-14T05:19:55.628Z,47.53
2016-06-14T05:20:55.615Z,47.33
2016-06-14T05:21:55.618Z,47.43
2016-06-14T05:22:55.605Z,47.53
2016-06-14T05:23:55.608Z,47.53
2016-06-14T05:24:55.612Z,47.43
2016-06-14T05:25:55.600Z,47.33
2016-06-14T05:26:55.634Z,47.33
2016-06-14T05:27:55.480Z,47.24
2016-06-14T05:28:55.546Z,47.24
2016-06-14T05:29:55.440Z,47.14
2016-06-14T05:30:56.130Z,47.43
2016-06-14T05:31:55.398Z,47.43
2016-06-14T05:32:55.574Z,47.33
2016-06-14T05:33:55.405Z,47.24
2016-06-14T05:34:55.596Z,47.33
2016-06-14T05:35:55.317Z,47.33
2016-06-14T05:36:55.306Z,47.14
2016-06-14T05:37:55.355Z,46.75
2016-06-14T05:38:55.327Z,46.66
2016-06-14T05:39:55.236Z,46.66
2016-06-14T05:40:55.207Z,46.47
2016-06-14T05:41:55.196Z,46.49
2016-06-14T05:42:55.324Z,46.56
2016-06-14T05:43:55.155Z,46.47
2016-06-14T05:44:55.142Z,46.49
2016-06-14T05:45:54.958Z,46.39
2016-06-14T05:46:55.117Z,46.3
2016-06-14T05:47:55.073Z,46.2
2016-06-14T05:48:55.060Z,46
2016-06-14T05:49:55.111Z,45.91
2016-06-14T05:50:55.020Z,46.2
2016-06-14T05:51:54.992Z,46.1
2016-06-14T05:52:54.995Z,46.1
2016-06-14T05:53:55.061Z,46.3
2016-06-14T05:54:54.953Z,46.1
2016-06-14T05:55:54.957Z,46.3
2016-06-14T05:56:54.976Z,46.3
2016-06-14T05:57:54.979Z,46
2016-06-14T05:58:55.013Z,46
2016-06-14T05:59:55.032Z,46.1
2016-06-14T06:00:55.566Z,46
2016-06-14T06:01:54.850Z,45.91
2016-06-14T06:02:54.807Z,45.83
2016-06-14T06:03:54.811Z,45.81
2016-06-14T06:04:54.751Z,45.91
2016-06-14T06:05:54.737Z,45.91
2016-06-14T06:06:54.710Z,46.1
2016-06-14T06:07:54.807Z,46.1
2016-06-14T06:08:54.669Z,46.1
2016-06-14T06:09:54.657Z,46
2016-06-14T06:10:54.816Z,46.3
2016-06-14T06:11:54.647Z,46.3
2016-06-14T06:12:54.775Z,46.3
2016-06-14T06:13:54.809Z,46.39
2016-06-14T06:14:54.562Z,46.2
2016-06-14T06:15:54.565Z,46.1
2016-06-14T06:16:54.616Z,46.3
2016-06-14T06:17:54.774Z,45.91
2016-06-14T06:18:54.669Z,46
2016-06-14T06:19:54.484Z,46.17
2016-06-14T06:20:54.471Z,46.2
2016-06-14T06:21:54.412Z,46.2
2016-06-14T06:22:54.587Z,46.2
2016-06-14T06:23:54.387Z,46.1
2016-06-14T06:24:54.296Z,46.2
2016-06-14T06:25:54.346Z,46.1
2016-06-14T06:26:54.318Z,46.27
2016-06-14T06:27:54.305Z,46.37
2016-06-14T06:28:54.278Z,46.1
2016-06-14T06:29:54.249Z,46.37
2016-06-14T06:30:54.237Z,46.47
2016-06-14T06:31:54.412Z,46.56
2016-06-14T06:32:54.212Z,46.56
2016-06-14T06:33:54.184Z,46.17
2016-06-14T06:34:57.202Z,46.37
2016-06-14T06:35:54.143Z,46.47
2016-06-14T06:36:54.115Z,46.47
2016-06-14T06:37:53.946Z,46.47
2016-06-14T06:38:54.089Z,46.47
2016-06-14T06:39:54.061Z,46.37
2016-06-14T06:40:54.049Z,46.37
2016-06-14T06:41:54.020Z,46.37
2016-06-14T06:42:54.071Z,46.47
2016-06-14T06:43:57.026Z,46.37
2016-06-14T06:44:53.998Z,46.47
2016-06-14T06:45:54.699Z,46.47
2016-06-14T06:46:54.008Z,46.56
2016-06-14T06:47:54.050Z,46.56
2016-06-14T06:48:54.029Z,46.37
2016-06-14T06:49:54.260Z,46.56
2016-06-14T06:50:54.223Z,46.47
2016-06-14T06:51:54.098Z,46.56
2016-06-14T06:52:54.038Z,46.47
2016-06-14T06:53:54.258Z,46.56
2016-06-14T06:54:54.197Z,46.47
2016-06-14T06:55:54.037Z,46.56
2016-06-14T06:56:54.249Z,46.49
2016-06-14T06:57:54.131Z,46.56
2016-06-14T06:58:54.171Z,46.37
2016-06-14T06:59:57.460Z,46.58
2016-06-14T07:00:58.325Z,46.49
2016-06-14T07:01:54.034Z,46.85
2016-06-14T07:02:54.460Z,46.78
2016-06-14T07:03:54.121Z,46.78
2016-06-14T07:04:53.970Z,46.75
2016-06-14T07:05:54.145Z,47.24
2016-06-14T07:06:53.899Z,46.75
2016-06-14T07:07:54.169Z,47.45
2016-06-14T07:08:54.095Z,46.88
2016-06-14T07:09:56.987Z,46.78
2016-06-14T07:10:53.976Z,46.56
2016-06-14T07:11:53.870Z,46.88
2016-06-14T07:12:53.842Z,46.88
2016-06-14T07:13:53.845Z,46.58
2016-06-14T07:14:53.834Z,46.75
2016-06-14T07:15:53.743Z,46.58
2016-06-14T07:16:53.683Z,46.78
2016-06-14T07:17:53.686Z,46.58
2016-06-14T07:18:53.674Z,46.88
2016-06-14T07:19:53.568Z,46.68
2016-06-14T07:20:53.648Z,46.75
2016-06-14T07:21:53.606Z,46.88
2016-06-14T07:22:56.671Z,46.88
2016-06-14T07:23:53.721Z,46.88
2016-06-14T07:24:53.599Z,46.68
2016-06-14T07:25:53.399Z,46.78
2016-06-14T07:26:53.542Z,46.68
2016-06-14T07:27:53.577Z,46.58
2016-06-14T07:28:53.830Z,46.58
2016-06-14T07:29:53.833Z,46.58
2016-06-14T07:30:53.679Z,46.68
2016-06-14T07:31:53.636Z,46.49
2016-06-14T07:32:53.530Z,46.58
2016-06-14T07:33:56.783Z,46.1
2016-06-14T07:34:53.426Z,46.49
2016-06-14T07:35:56.414Z,46.3
2016-06-14T07:36:53.448Z,45.91
2016-06-14T07:37:53.419Z,46.2
2016-06-14T07:38:53.453Z,46.1
2016-06-14T07:39:53.707Z,46.1
2016-06-14T07:40:53.304Z,46
2016-06-14T07:41:53.323Z,46
2016-06-14T07:42:53.185Z,46
2016-06-14T07:43:53.173Z,46
2016-06-14T07:44:53.129Z,46
2016-06-14T07:45:53.383Z,46
2016-06-14T07:46:56.260Z,45.72
2016-06-14T07:47:53.278Z,45.52
2016-06-14T07:48:53.126Z,45.72
2016-06-14T07:49:53.145Z,45.81
2016-06-14T07:50:53.194Z,45.62
2016-06-14T07:51:52.979Z,45.62
2016-06-14T07:52:53.310Z,45.52
2016-06-14T07:53:53.391Z,45.42
2016-06-14T07:54:52.988Z,45.23
2016-06-14T07:55:53.053Z,44.65
2016-06-14T07:56:53.025Z,44.94
2016-06-14T07:57:52.842Z,44.84
2016-06-14T07:58:53.015Z,45.14
2016-06-14T07:59:52.909Z,45.23
2016-06-14T08:00:52.866Z,45.23
2016-06-14T08:01:52.853Z,44.56
2016-06-14T08:02:52.825Z,44.65
2016-06-14T08:03:52.844Z,45.23
2016-06-14T08:04:52.909Z,44.75
2016-06-14T08:05:52.819Z,44.94
2016-06-14T08:06:52.758Z,44.84
2016-06-14T08:07:52.778Z,45.04
2016-06-14T08:08:52.750Z,44.75
2016-06-14T08:09:52.721Z,44.75
2016-06-14T08:10:52.662Z,45.25
2016-06-14T08:11:52.744Z,45.04
2016-06-14T08:12:52.652Z,44.75
2016-06-14T08:13:52.671Z,44.46
2016-06-14T08:14:52.674Z,44.07
2016-06-14T08:15:52.881Z,44.36
2016-06-14T08:16:52.477Z,43.88
2016-06-14T08:17:52.480Z,44.46
2016-06-14T08:18:52.484Z,44.07
2016-06-14T08:19:52.424Z,43.98
2016-06-14T08:20:52.380Z,44.17
2016-06-14T08:21:52.555Z,43.8
2016-06-14T08:22:52.480Z,43.59
2016-06-14T08:23:52.405Z,43.3
2016-06-14T08:24:52.456Z,43.68
2016-06-14T08:25:52.333Z,43.49
2016-06-14T08:26:52.476Z,43.61
2016-06-14T08:27:52.276Z,43.4
2016-06-14T08:28:52.390Z,43.4
2016-06-14T08:29:52.283Z,43.59
2016-06-14T08:30:52.223Z,43.51
2016-06-14T08:31:52.289Z,43.59
2016-06-14T08:32:52.245Z,43.61
2016-06-14T08:33:52.201Z,43.61
2016-06-14T08:34:52.142Z,43.49
2016-06-14T08:35:52.192Z,43.61
2016-06-14T08:36:52.304Z,43.51
2016-06-14T08:37:52.198Z,43.51
2016-06-14T08:38:52.092Z,43.51
2016-06-14T08:39:52.016Z,43.41
2016-06-14T08:40:52.207Z,43.32
2016-06-14T08:41:51.977Z,43.2
2016-06-14T08:42:51.839Z,43.32
2016-06-14T08:43:51.935Z,43.61
2016-06-14T08:44:52.017Z,43.61
2016-06-14T08:45:52.566Z,43.71
2016-06-14T08:46:51.898Z,43.61
2016-06-14T08:47:51.901Z,43.61
2016-06-14T08:48:51.873Z,43.41
2016-06-14T08:49:52.032Z,43.71
2016-06-14T08:50:51.989Z,43.71
2016-06-14T08:51:51.866Z,43.32
2016-06-14T08:52:51.760Z,42.74
2016-06-14T08:53:51.888Z,42.83
2016-06-14T08:54:51.813Z,42.74
2016-06-14T08:55:51.925Z,42.74
2016-06-14T08:56:51.819Z,42.35
2016-06-14T08:57:51.916Z,42.45
2016-06-14T08:58:51.856Z,42.45
2016-06-14T08:59:51.719Z,42.07
2016-06-14T09:00:51.831Z,41.97
2016-06-14T09:01:51.756Z,41.67
2016-06-14T09:02:51.712Z,41.48
2016-06-14T09:04:00.700Z,41.39
2016-06-14T09:04:51.562Z,41.19
2016-06-14T09:05:51.815Z,41.19
2016-06-14T09:06:51.678Z,41.09
2016-06-14T09:07:51.541Z,41.29
2016-06-14T09:08:51.669Z,40.81
2016-06-14T09:09:51.655Z,40.81
2016-06-14T09:10:51.627Z,41.09
2016-06-14T09:11:51.396Z,41.39
2016-06-14T09:12:51.540Z,41.19
2016-06-14T09:13:51.512Z,41.39
2016-06-14T09:14:51.406Z,41.58
2016-06-14T09:15:51.674Z,41.67
2016-06-14T09:16:51.474Z,41.48
2016-06-14T09:17:51.446Z,41.19
2016-06-14T09:18:51.277Z,41.67
2016-06-14T09:19:51.374Z,41.58
2016-06-14T09:20:51.315Z,41.67
2016-06-14T09:21:51.442Z,41.58
2016-06-14T09:22:51.431Z,41.67
2016-06-14T09:23:51.356Z,41.97
2016-06-14T09:24:51.202Z,41.87
2016-06-14T09:25:51.299Z,41.87
2016-06-14T09:26:51.286Z,41.87
2016-06-14T09:27:51.258Z,41.87
2016-06-14T09:28:51.089Z,41.87
2016-06-14T09:29:51.452Z,41.77
2016-06-14T09:30:51.189Z,42.07
2016-06-14T09:31:51.020Z,42.07
2016-06-14T09:32:51.164Z,41.87
2016-06-14T09:33:51.074Z,41.87
2016-06-14T09:34:51.060Z,41.39
2016-06-14T09:35:51.110Z,41.67
2016-06-14T09:36:51.083Z,41.77
2016-06-14T09:37:53.977Z,41.39
2016-06-14T09:38:50.948Z,41.87
2016-06-14T09:39:50.905Z,41.67
2016-06-14T09:40:50.891Z,41.77
2016-06-14T09:41:51.051Z,41.87
2016-06-14T09:42:50.976Z,41.97
2016-06-14T09:43:51.135Z,41.67
2016-06-14T09:44:50.858Z,41.48
2016-06-14T09:45:50.876Z,41
2016-06-14T09:46:50.895Z,41.19
2016-06-14T09:47:50.819Z,41
2016-06-14T09:48:50.775Z,41.19
2016-06-14T09:49:50.686Z,41.48
2016-06-14T09:50:50.625Z,40.9
2016-06-14T09:51:50.613Z,40.9
2016-06-14T09:52:50.600Z,40.81
2016-06-14T09:53:50.588Z,40.61
2016-06-14T09:54:50.560Z,40.61
2016-06-14T09:55:50.547Z,40.71
2016-06-14T09:56:50.566Z,40.81
2016-06-14T09:57:50.725Z,41
2016-06-14T09:58:50.603Z,40.71
2016-06-14T09:59:50.512Z,40.71
2016-06-14T10:00:50.609Z,40.81
2016-06-14T10:01:50.582Z,40.52
2016-06-14T10:02:50.382Z,40.52
2016-06-14T10:03:50.571Z,40.42
2016-06-14T10:04:50.372Z,40.23
2016-06-14T10:05:50.563Z,40.32
2016-06-14T10:06:50.331Z,40.42
2016-06-14T10:07:50.319Z,40.32
2016-06-14T10:08:50.337Z,40.52
2016-06-14T10:09:50.356Z,40.52
2016-06-14T10:10:50.265Z,40.32
2016-06-14T10:11:50.706Z,40.52
2016-06-14T10:12:50.224Z,40.13
2016-06-14T10:13:50.196Z,40.42
2016-06-14T10:14:50.183Z,39.94
2016-06-14T10:15:50.311Z,40.71
2016-06-14T10:16:50.158Z,40.32
2016-06-14T10:17:50.115Z,40.71
2016-06-14T10:18:50.103Z,40.81
2016-06-14T10:19:50.120Z,40.23
2016-06-14T10:20:50.124Z,40.32
2016-06-14T10:21:50.159Z,40.61
2016-06-14T10:22:50.115Z,40.32
2016-06-14T10:23:50.008Z,39.94
2016-06-14T10:24:49.980Z,40.13
2016-06-14T10:25:49.967Z,40.32
2016-06-14T10:26:49.970Z,39.84
2016-06-14T10:27:49.959Z,39.74
2016-06-14T10:28:49.914Z,39.74
2016-06-14T10:29:49.886Z,39.64
2016-06-14T10:30:49.904Z,39.55
2016-06-14T10:31:49.954Z,39.64
2016-06-14T10:32:49.911Z,39.55
2016-06-14T10:33:52.836Z,39.84
2016-06-14T10:34:49.948Z,39.94
2016-06-14T10:35:49.842Z,40.71
2016-06-14T10:36:49.861Z,40.9
2016-06-14T10:37:49.989Z,40.81
2016-06-14T10:38:49.773Z,40.9
2016-06-14T10:39:49.918Z,40.71
2016-06-14T10:40:49.920Z,40.73
2016-06-14T10:41:49.829Z,40.9
2016-06-14T10:42:49.660Z,41
2016-06-14T10:43:49.805Z,41.39
2016-06-14T10:44:49.761Z,41.58
2016-06-14T10:45:49.732Z,41.67
2016-06-14T10:46:50.157Z,40.9
2016-06-14T10:47:49.597Z,41.29
2016-06-14T10:48:49.631Z,41.19
2016-06-14T10:49:49.729Z,40.9
2016-06-14T10:50:49.638Z,40.9
2016-06-14T10:51:49.485Z,41.09
2016-06-14T10:52:49.472Z,40.71
2016-06-14T10:53:49.429Z,40.81
2016-06-14T10:54:49.416Z,40.32
2016-06-14T10:55:49.481Z,40.61
2016-06-14T10:56:49.407Z,40.71
2016-06-14T10:57:49.550Z,41
2016-06-14T10:58:49.365Z,41
2016-06-14T10:59:49.306Z,41.09
2016-06-14T11:00:49.466Z,41.19
2016-06-14T11:01:49.907Z,41.21
2016-06-14T11:02:49.269Z,41.39
2016-06-14T11:03:49.413Z,41.58
2016-06-14T11:04:49.228Z,41.09
2016-06-14T11:05:49.200Z,41.39
2016-06-14T11:06:49.172Z,41.19
2016-06-14T11:07:49.175Z,41.09
2016-06-14T11:08:49.146Z,41.48
2016-06-14T11:09:49.118Z,41.09
2016-06-14T11:10:49.090Z,41.48
2016-06-14T11:11:49.124Z,41.58
2016-06-14T11:12:49.143Z,41.6
2016-06-14T11:13:49.068Z,41.5
2016-06-14T11:14:49.025Z,41.39
2016-06-14T11:15:49.012Z,41.58
2016-06-14T11:16:48.983Z,41.67
2016-06-14T11:17:48.971Z,41.58
2016-06-14T11:18:48.959Z,41.02
2016-06-14T11:19:48.930Z,41
2016-06-14T11:20:48.934Z,40.83
2016-06-14T11:21:48.889Z,41.09
2016-06-14T11:22:48.909Z,40.73
2016-06-14T11:23:48.896Z,40.63
2016-06-14T11:24:48.961Z,40.92
2016-06-14T11:25:48.918Z,40.83
2016-06-14T11:26:49.077Z,41.31
2016-06-14T11:27:49.048Z,40.63
2016-06-14T11:28:49.005Z,40.25
2016-06-14T11:29:48.914Z,40.25
2016-06-14T11:30:48.839Z,40.15
2016-06-14T11:31:48.811Z,40.34
2016-06-14T11:32:51.814Z,40.53
2016-06-14T11:33:48.801Z,40.92
2016-06-14T11:34:48.664Z,40.73
2016-06-14T11:35:48.682Z,40.63
2016-06-14T11:36:48.608Z,40.25
2016-06-14T11:37:48.580Z,40.63
2016-06-14T11:38:48.583Z,40.44
2016-06-14T11:39:48.602Z,40.53
2016-06-14T11:40:48.651Z,40.83
2016-06-14T11:41:48.561Z,40.44
2016-06-14T11:42:48.689Z,40.63
2016-06-14T11:43:49.051Z,40.34
2016-06-14T11:44:51.726Z,40.34
2016-06-14T11:45:48.713Z,39.95
2016-06-14T11:46:49.576Z,40.34
2016-06-14T11:47:48.594Z,40.25
2016-06-14T11:48:50.191Z,40.34
2016-06-14T11:49:48.367Z,40.25
2016-06-14T11:50:48.339Z,40.34
2016-06-14T11:51:48.451Z,41.21
2016-06-14T11:52:48.392Z,41.02
2016-06-14T11:53:48.378Z,41.21
2016-06-14T11:54:48.273Z,40.34
2016-06-14T11:55:48.401Z,40.63
2016-06-14T11:56:48.340Z,40.83
2016-06-14T11:57:48.344Z,40.73
2016-06-14T11:58:48.207Z,40.92
2016-06-14T11:59:48.178Z,40.92
2016-06-14T12:00:48.150Z,40.83
2016-06-14T12:01:48.372Z,40.25
2016-06-14T12:02:48.407Z,40.83
2016-06-14T12:03:48.066Z,40.92
2016-06-14T12:04:48.163Z,40.92
2016-06-14T12:05:48.071Z,41.31
2016-06-14T12:06:47.902Z,41.31
2016-06-14T12:07:48.125Z,41.31
2016-06-14T12:08:48.081Z,41.21
2016-06-14T12:09:47.819Z,41.31
2016-06-14T12:10:48.009Z,41.31
2016-06-14T12:11:48.153Z,41.11
2016-06-14T12:12:47.921Z,41.21
2016-06-14T12:13:47.893Z,41.79
2016-06-14T12:14:47.882Z,41.6
2016-06-14T12:15:47.930Z,41.7
2016-06-14T12:16:47.997Z,41.6
2016-06-14T12:17:48.140Z,41.79
2016-06-14T12:18:48.065Z,41.21
2016-06-14T12:19:48.083Z,40.92
2016-06-14T12:20:47.962Z,40.92
2016-06-14T12:21:47.903Z,41.7
2016-06-14T12:22:47.952Z,41.6
2016-06-14T12:23:50.939Z,41.5
2016-06-14T12:24:47.912Z,41.7
2016-06-14T12:25:48.150Z,41.5
2016-06-14T12:26:47.746Z,41.7
2016-06-14T12:27:47.655Z,41.5
2016-06-14T12:28:47.783Z,41.5
2016-06-14T12:29:47.614Z,41.11
2016-06-14T12:30:47.633Z,41.5
2016-06-14T12:31:47.714Z,41.41
2016-06-14T12:32:47.452Z,41.5
2016-06-14T12:33:47.518Z,41.41
2016-06-14T12:34:47.521Z,41.6
2016-06-14T12:35:47.492Z,41.7
2016-06-14T12:36:47.511Z,41.7
2016-06-14T12:37:47.453Z,41.89
2016-06-14T12:38:47.486Z,41.99
2016-06-14T12:39:47.411Z,41.79
2016-06-14T12:40:47.587Z,42.08
2016-06-14T12:41:47.370Z,41.99
2016-06-14T12:42:47.373Z,41.89
2016-06-14T12:43:47.408Z,41.79
2016-06-14T12:44:47.302Z,41.89
2016-06-14T12:45:47.289Z,41.7
2016-06-14T12:46:47.792Z,41.7
2016-06-14T12:47:47.373Z,41.52
2016-06-14T12:48:47.237Z,41.41
2016-06-14T12:49:47.239Z,41.5
2016-06-14T12:50:47.102Z,41.6
2016-06-14T12:51:47.182Z,41.5
2016-06-14T12:52:47.169Z,41.14
2016-06-14T12:53:47.157Z,41.31
2016-06-14T12:54:47.161Z,41.11
2016-06-14T12:55:47.133Z,41.02